createdAt,value
2023-02-22T00:03:18.363Z,23.3
2023-02-22T00:09:10.525Z,23.1
2023-02-22T00:15:03.214Z,22.8
2023-02-22T00:20:56.380Z,22.6
2023-02-22T00:26:47.849Z,22.9
2023-02-22T00:32:25.883Z,23.4
2023-02-22T00:38:03.360Z,23.1
2023-02-22T00:43:55.541Z,22.9
2023-02-22T00:49:17.813Z,22.6
2023-02-22T00:55:10.902Z,22.9
2023-02-22T01:01:03.514Z,23.4
2023-02-22T01:06:57.416Z,23.1
2023-02-22T01:12:35.443Z,22.9
2023-02-22T01:18:12.609Z,22.6
2023-02-22T01:24:06.479Z,22.9
2023-02-22T01:29:59.916Z,23.4
2023-02-22T01:35:36.956Z,23.1
2023-02-22T01:41:14.508Z,22.7
2023-02-22T01:46:52.742Z,22.4
2023-02-22T01:52:44.579Z,22.3
2023-02-22T01:58:36.642Z,22.2
2023-02-22T02:04:29.305Z,22.6
2023-02-22T02:10:21.935Z,23.3
2023-02-22T02:15:58.674Z,23.3
2023-02-22T02:21:21.117Z,22.9
2023-02-22T02:26:58.422Z,22.5
2023-02-22T02:32:51.129Z,22.4
2023-02-22T02:38:45.406Z,22.1
2023-02-22T02:44:06.791Z,22.3
2023-02-22T02:50:00.182Z,22.7
2023-02-22T02:55:53.704Z,22.9
2023-02-22T03:01:29.423Z,23.3
2023-02-22T03:07:23.286Z,23.4
2023-02-22T03:13:16.331Z,23.1
2023-02-22T03:19:08.753Z,22.6
2023-02-22T03:25:01.281Z,22.4
2023-02-22T03:30:53.618Z,22.1
2023-02-22T03:36:30.300Z,22.2
2023-02-22T03:42:08.403Z,22.6
2023-02-22T03:47:46.810Z,23.3
2023-02-22T03:53:39.435Z,23.3
2023-02-22T03:59:02.533Z,22.8
2023-02-22T04:04:56.599Z,22.5
2023-02-22T04:10:17.596Z,22.3
2023-02-22T04:16:10.264Z,22.1
2023-02-22T04:22:03.613Z,22.2
2023-02-22T04:27:55.261Z,22.6
2023-02-22T04:33:32.775Z,23.3
2023-02-22T04:39:11.685Z,23.3
2023-02-22T04:44:48.227Z,22.8
2023-02-22T04:50:42.893Z,22.4
2023-02-22T04:56:36.767Z,22.2
2023-02-22T05:02:28.987Z,21.9
2023-02-22T05:08:05.691Z,22.1
2023-02-22T05:13:28.307Z,22.6
2023-02-22T05:19:20.438Z,23.3
2023-02-22T05:25:13.132Z,23.3
2023-02-22T05:31:07.067Z,22.8
2023-02-22T05:37:00.740Z,22.4
2023-02-22T05:42:52.753Z,22.2
2023-02-22T05:48:31.414Z,22
2023-02-22T05:54:24.958Z,22.2
2023-02-22T06:00:17.746Z,22.7
2023-02-22T06:05:55.316Z,22.9
2023-02-22T06:11:46.936Z,23.1
2023-02-22T06:17:39.063Z,23.4
2023-02-22T06:23:17.128Z,23.1
2023-02-22T06:28:54.062Z,22.6
2023-02-22T06:34:31.558Z,22.4
2023-02-22T06:40:09.350Z,22.1
2023-02-22T06:45:46.753Z,22.1
2023-02-22T06:51:25.714Z,22.4
2023-02-22T06:57:03.713Z,23
2023-02-22T07:02:40.967Z,23.2
2023-02-22T07:08:19.471Z,22.9
2023-02-22T07:13:59.799Z,22.6
2023-02-22T07:19:37.434Z,22.8
2023-02-22T07:24:59.682Z,23.3
2023-02-22T07:30:53.920Z,23.1
2023-02-22T07:36:47.530Z,22.9
2023-02-22T07:42:41.452Z,22.7
2023-02-22T07:48:34.972Z,23.3
2023-02-22T07:54:27.092Z,23.3
2023-02-22T08:00:18.562Z,23
2023-02-22T08:06:11.920Z,22.7
2023-02-22T08:12:04.284Z,23.3
2023-02-22T08:17:42.027Z,23.4
2023-02-22T08:23:36.071Z,23.1
2023-02-22T08:29:29.092Z,22.8
2023-02-22T08:35:27.008Z,23.1
2023-02-22T08:41:20.448Z,23.4
2023-02-22T08:47:13.411Z,23.1
2023-02-22T08:53:06.932Z,22.9
2023-02-22T08:59:00.535Z,23.1
2023-02-22T09:05:06.291Z,23.4
2023-02-22T09:10:58.526Z,23.1
2023-02-22T09:16:55.968Z,22.9
2023-02-22T09:22:57.558Z,23.2
2023-02-22T09:28:56.612Z,23.6
2023-02-22T09:34:38.197Z,23.2
2023-02-22T09:40:31.873Z,23
2023-02-22T09:46:24.575Z,22.9
2023-02-22T09:52:18.853Z,22.8
2023-02-22T09:57:56.335Z,22.7
2023-02-22T10:03:48.864Z,22.6
2023-02-22T10:09:27.482Z,22.5
2023-02-22T10:14:17.875Z,22.4
2023-02-22T10:20:11.457Z,22.4
2023-02-22T10:25:49.413Z,22.3
2023-02-22T10:31:48.796Z,22.2
2023-02-22T10:37:42.729Z,22.1
2023-02-22T10:43:06.226Z,22
2023-02-22T10:48:45.222Z,21.9
2023-02-22T10:54:22.206Z,21.8
2023-02-22T11:00:04.690Z,21.7
2023-02-22T11:05:41.849Z,21.6
2023-02-22T11:11:20.237Z,21.5
2023-02-22T11:16:43.694Z,21.4
2023-02-22T11:22:22.835Z,21.3
2023-02-22T11:28:08.718Z,21.3
2023-02-22T11:34:03.817Z,21.2
2023-02-22T11:45:32.561Z,21.1
2023-02-22T11:51:20.633Z,21
2023-02-22T11:57:11.122Z,20.9
2023-02-22T12:02:56.533Z,20.9
2023-02-22T12:08:56.852Z,20.8
2023-02-22T12:14:49.679Z,20.8
2023-02-22T12:20:52.246Z,20.7
2023-02-22T12:26:55.318Z,20.7
2023-02-22T12:32:39.501Z,20.6
2023-02-22T12:38:01.158Z,20.6
2023-02-22T12:44:06.685Z,20.5
2023-02-22T12:49:59.232Z,20.5
2023-02-22T12:56:03.801Z,20.4
2023-02-22T13:01:25.978Z,20.4
2023-02-22T13:07:32.196Z,20.4
2023-02-22T13:13:25.590Z,20.3
2023-02-22T13:19:19.088Z,20.3
2023-02-22T13:24:41.679Z,20.3
2023-02-22T13:30:48.973Z,20.3
2023-02-22T13:36:28.884Z,20.2
2023-02-22T13:42:22.327Z,20.2
2023-02-22T13:48:15.319Z,20.1
2023-02-22T13:54:11.443Z,20.1
2023-02-22T14:00:09.023Z,20.1
2023-02-22T14:06:03.809Z,20.1
2023-02-22T14:11:44.256Z,20.1
2023-02-22T14:17:45.247Z,20.1
2023-02-22T14:23:38.684Z,20.1
2023-02-22T14:29:41.554Z,20
2023-02-22T14:36:06.713Z,20
2023-02-22T14:42:01.673Z,20
2023-02-22T14:47:58.638Z,20
2023-02-22T14:54:05.224Z,19.9
2023-02-22T14:59:42.665Z,19.9
2023-02-22T15:06:02.463Z,19.9
2023-02-22T15:11:58.143Z,19.9
2023-02-22T15:18:01.842Z,19.9
2023-02-22T15:23:57.537Z,19.9
2023-02-22T15:29:47.533Z,19.9
2023-02-22T15:36:02.263Z,19.9
2023-02-22T15:41:56.583Z,19.9
2023-02-22T15:47:59.032Z,19.9
2023-02-22T15:53:51.713Z,19.9
2023-02-22T15:59:40.157Z,19.8
2023-02-22T16:05:44.184Z,19.8
2023-02-22T16:11:37.955Z,19.8
2023-02-22T16:17:59.974Z,19.8
2023-02-22T16:24:04.090Z,19.8
2023-02-22T16:29:47.162Z,19.8
2023-02-22T16:35:39.425Z,19.8
2023-02-22T16:41:33.103Z,19.7
2023-02-22T16:47:10.833Z,19.7
2023-02-22T16:52:49.448Z,19.7
2023-02-22T16:58:27.532Z,19.6
2023-02-22T17:04:19.890Z,19.6
2023-02-22T17:10:12.543Z,19.6
2023-02-22T17:16:07.089Z,19.6
2023-02-22T17:21:44.116Z,19.6
2023-02-22T17:27:22.453Z,19.6
2023-02-22T17:33:00.178Z,19.6
2023-02-22T17:38:54.679Z,19.6
2023-02-22T17:44:48.211Z,19.5
2023-02-22T17:50:40.876Z,19.5
2023-02-22T17:56:58.685Z,19.5
2023-02-22T18:02:37.060Z,19.4
2023-02-22T18:07:58.945Z,19.5
2023-02-22T18:13:36.594Z,19.4
2023-02-22T18:19:14.666Z,19.4
2023-02-22T18:25:08.578Z,19.4
2023-02-22T18:31:13.999Z,19.4
2023-02-22T18:37:08.314Z,19.4
2023-02-22T18:43:01.639Z,19.4
2023-02-22T18:48:55.845Z,19.4
2023-02-22T18:54:53.165Z,19.4
2023-02-22T19:00:47.129Z,19.4
2023-02-22T19:06:41.951Z,19.4
2023-02-22T19:12:36.072Z,19.3
2023-02-22T19:18:32.199Z,19.3
2023-02-22T19:24:29.457Z,19.3
2023-02-22T19:30:22.597Z,19.3
2023-02-22T19:36:18.541Z,19.3
2023-02-22T19:42:15.927Z,19.3
2023-02-22T19:48:10.161Z,19.3
2023-02-22T19:54:04.085Z,19.3
2023-02-22T19:59:57.513Z,19.2
2023-02-22T20:05:52.572Z,19.3
2023-02-22T20:11:45.953Z,19.2
2023-02-22T20:17:22.757Z,19.2
2023-02-22T20:23:17.305Z,19.2
2023-02-22T20:28:57.963Z,19.2
2023-02-22T20:34:53.885Z,19.2
2023-02-22T20:40:32.258Z,19.2
2023-02-22T20:46:08.800Z,19.2
2023-02-22T20:52:02.371Z,19.2
2023-02-22T20:57:58.802Z,19.1
2023-02-22T21:03:51.841Z,19.1
2023-02-22T21:09:47.165Z,19.4
2023-02-22T21:15:43.879Z,20
2023-02-22T21:21:37.746Z,20.8
2023-02-22T21:27:14.493Z,21.4
2023-02-22T21:33:24.360Z,21.9
2023-02-22T21:39:16.711Z,21.8
2023-02-22T21:45:10.003Z,22.2
2023-02-22T21:51:03.553Z,22.3
2023-02-22T21:56:56.443Z,21.7
2023-02-22T22:02:49.589Z,22.3
2023-02-22T22:08:43.294Z,22.9
2023-02-22T22:14:42.274Z,22.9
2023-02-22T22:20:34.122Z,22.8
2023-02-22T22:26:28.325Z,23.3
2023-02-22T22:32:21.350Z,23.2
2023-02-22T22:37:58.020Z,22.7
2023-02-22T22:43:36.185Z,23.1
2023-02-22T22:49:13.763Z,23.7
2023-02-22T22:55:08.231Z,23.4
2023-02-22T23:01:01.337Z,22.9
2023-02-22T23:06:55.828Z,23.5
2023-02-22T23:12:48.676Z,23.9
2023-02-22T23:18:43.102Z,23.4
2023-02-22T23:24:35.223Z,23.3
2023-02-22T23:30:11.604Z,23.9
2023-02-22T23:36:07.135Z,23.9
2023-02-22T23:42:01.876Z,23.4
2023-02-22T23:47:39.796Z,22.9
2023-02-22T23:53:18.556Z,22.7
2023-02-22T23:59:10.654Z,22.5
